Thunder radar more information blitzortung!


avis per Pluja more information rain snow radar


Visita la nostra xarxa de llocs de meteo:

Template documentation
and downloads

And another site



Rain From: 18-10-2018 10:00 Until: 16:59 warning for: Rain Level: Yellow info button

Pagina Historial Weather Underground text

Diari Resum Marc 6, 2016 Unitats:  Mètric    Imperial   Tant
« Previous Dia
SegĂźent Dia »
Diari Setmana Mensual Anual Personalitzada
  Maxima: Minima: Media:
Temperatura: -17.8 °C -13.7 °C -11.5 °C
Punt de rosada: -17.8 °C -21.2 °C -19.2 °C
Humitat: Humidity % 24 % 39 %
Wind Speed: 0 km/h 0 km/h 10.9 km/h
RĂ fegues de vent: 0 km/h - -
Vent:- - SSW
Pression baro: 0 hPa 34097 hPa -
Precipitacions: 0 mm    
Historical Graphs
 
 
Dades de taula per Marc 6, 2016
Temps Temperatura Punt de rosada Pression baro Vent Wind Speed RĂ fegues de vent Humitat Rainfall Rate (Hourly)
-17.8 °C -17.8 °C 0 hPa Calm     Humidity % 0 mm
11:19 -12.4 °C -17.7 °C 34198.6 hPa NE 11.9 km/h 11.9 km/h 52 % 0 mm
11:24 -12.3 °C -17.6 °C 34198.6 hPa ESE 6.3 km/h 6.3 km/h 52 % 0 mm
11:29 -12 °C -17.3 °C 34164.7 hPa SSW 11.1 km/h 11.1 km/h 52 % 0 mm
11:34 -11.9 °C -17.1 °C 34164.7 hPa SW 9.3 km/h 9.3 km/h 52 % 0 mm
11:39 -11.6 °C -17.1 °C 34164.7 hPa West 11.9 km/h 11.9 km/h 51 % 0 mm
11:44 -11.5 °C -16.9 °C 34164.7 hPa WNW 17.9 km/h 17.9 km/h 51 % 0 mm
11:49 -11.4 °C -16.9 °C 34164.7 hPa WNW 9 km/h 9 km/h 51 % 0 mm
11:54 -11.4 °C -16.8 °C 34164.7 hPa SSW 15 km/h 15 km/h 51 % 0 mm
11:59 -11.2 °C -16.8 °C 34164.7 hPa NE 23.8 km/h 23.8 km/h 50 % 0 mm
12:04 -11.6 °C -17.1 °C 34164.7 hPa ENE 17.9 km/h 17.9 km/h 50 % 0 mm
12:09 -11.6 °C -17.1 °C 34164.7 hPa SSW 6 km/h 6 km/h 50 % 0 mm
12:14 -11.2 °C -16.8 °C 34164.7 hPa SSW 11.9 km/h 11.9 km/h 50 % 0 mm
12:19 -10.9 °C -16.6 °C 34164.7 hPa WSW 16.1 km/h 16.1 km/h 50 % 0 mm
12:24 -10.8 °C -16.6 °C 34164.7 hPa SW 9 km/h 9 km/h 49 % 0 mm
12:29 -10.9 °C -17.2 °C 34164.7 hPa WNW 17.9 km/h 17.9 km/h 46 % 0 mm
12:34 -10.7 °C -16.8 °C 34164.7 hPa NNE 11.9 km/h 11.9 km/h 47 % 0 mm
12:39 -10.7 °C -17.1 °C 34164.7 hPa NNW 17.9 km/h 17.9 km/h 45 % 0 mm
12:44 -10.9 °C -17.3 °C 34198.6 hPa NNE 15 km/h 15 km/h 45 % 0 mm
12:49 -10.8 °C -17.6 °C 34198.6 hPa WNW 15 km/h 15 km/h 43 % 0 mm
12:59 -10.2 °C -17.3 °C 34164.7 hPa NNW 19.2 km/h 19.2 km/h 42 % 0 mm
13:04 -10 °C -17.1 °C 34164.7 hPa WNW 9 km/h 9 km/h 42 % 0 mm
13:09 -9.9 °C -17.2 °C 34164.7 hPa WNW 11.9 km/h 11.9 km/h 41 % 0 mm
13:14 -10.1 °C -18.2 °C 34164.7 hPa NE 17.9 km/h 17.9 km/h 37 % 0 mm
13:19 -10.2 °C -18.2 °C 34164.7 hPa WNW 14.5 km/h 14.5 km/h 37 % 0 mm
13:24 -10.2 °C -18.4 °C 34164.7 hPa SW 11.9 km/h 11.9 km/h 36 % 0 mm
13:29 -10.1 °C -18.4 °C 34164.7 hPa West 15.3 km/h 15.3 km/h 36 % 0 mm
13:34 -10.1 °C -19 °C 34164.7 hPa WNW 6 km/h 6 km/h 33 % 0 mm
13:39 -9.8 °C -19 °C 34164.7 hPa South 20.9 km/h 20.9 km/h 32 % 0 mm
13:49 -9.6 °C -19.1 °C 34130.9 hPa North 17.9 km/h 17.9 km/h 31 % 0 mm
13:54 -9.7 °C -19.1 °C 34130.9 hPa WNW 11.9 km/h 11.9 km/h 31 % 0 mm
13:59 -9.6 °C -19.1 °C 34130.9 hPa WNW 15 km/h 15 km/h 31 % 0 mm
14:04 -9.7 °C -19.3 °C 34130.9 hPa NE 15.6 km/h 15.6 km/h 30 % 0 mm
14:09 -9.8 °C -19.4 °C 34130.9 hPa NE 15 km/h 15 km/h 30 % 0 mm
14:14 -9.5 °C -18.9 °C 34130.9 hPa SW 15 km/h 15 km/h 31 % 0 mm
14:19 -9.5 °C -19.2 °C 34130.9 hPa NNE 9 km/h 9 km/h 30 % 0 mm
14:24 -9.4 °C -19.1 °C 34130.9 hPa West 15 km/h 15 km/h 30 % 0 mm
14:29 -9.4 °C -19.1 °C 34130.9 hPa West 6 km/h 6.3 km/h 30 % 0 mm
14:34 -9.3 °C -19.6 °C 34130.9 hPa WSW 23.8 km/h 23.8 km/h 28 % 0 mm
14:39 -9.1 °C -18.8 °C 34130.9 hPa NNW 15 km/h 15 km/h 30 % 0 mm
14:44 -9.1 °C -19.4 °C 34130.9 hPa NNE 17.9 km/h 17.9 km/h 28 % 0 mm
14:49 -9.2 °C -19.7 °C 34130.9 hPa SE 15 km/h 15 km/h 27 % 0 mm
14:54 -9.1 °C -19.6 °C 34130.9 hPa ENE 15 km/h 15 km/h 27 % 0 mm
14:59 -9 °C -19.3 °C 34130.9 hPa NNW 9.3 km/h 9.3 km/h 28 % 0 mm
15:04 -9.1 °C -19.9 °C 34130.9 hPa WSW 26.9 km/h 26.9 km/h 26 % 0 mm
15:09 -9.1 °C -20.2 °C 34130.9 hPa West 11.9 km/h 11.9 km/h 25 % 0 mm
15:14 -9.2 °C -20.3 °C 34130.9 hPa WNW 11.9 km/h 11.9 km/h 25 % 0 mm
15:19 -9.3 °C -20.4 °C 34130.9 hPa NNE 9.8 km/h 9.8 km/h 25 % 0 mm
15:24 -9.4 °C -20.7 °C 34130.9 hPa WNW 20.9 km/h 20.9 km/h 24 % 0 mm
15:29 -9.5 °C -20.8 °C 34097 hPa West 26.9 km/h 26.9 km/h 24 % 0 mm
15:34 -9.7 °C -21 °C 34097 hPa SSE 9 km/h 9 km/h 24 % 0 mm
15:44 -9.8 °C -21.2 °C 34130.9 hPa SW 9 km/h 9 km/h 24 % 0 mm
15:49 -9.8 °C -20.8 °C 34130.9 hPa WSW 9 km/h 9 km/h 25 % 0 mm
15:54 -9.8 °C -20.5 °C 34130.9 hPa WNW 9 km/h 9 km/h 26 % 0 mm
15:59 -9.9 °C -20.6 °C 34130.9 hPa NNE 11.9 km/h 11.9 km/h 26 % 0 mm
16:04 -9.9 °C -20.4 °C 34130.9 hPa WNW 11.6 km/h 11.6 km/h 27 % 0 mm
16:09 -9.8 °C -20.2 °C 34130.9 hPa West 9 km/h 9 km/h 27 % 0 mm
16:14 -9.6 °C -20.1 °C 34130.9 hPa WSW 15 km/h 15 km/h 27 % 0 mm
16:24 -9.9 °C -20.7 °C 34130.9 hPa West 15 km/h 15 km/h 26 % 0 mm
16:29 -10.1 °C -20.4 °C 34130.9 hPa WSW 11.9 km/h 11.9 km/h 27 % 0 mm
16:34 -9.8 °C -20.3 °C 34130.9 hPa WNW 15 km/h 15 km/h 27 % 0 mm
16:39 -10 °C -20.4 °C 34130.9 hPa SW 15.6 km/h 15.6 km/h 27 % 0 mm
16:44 -10.2 °C -20.6 °C 34130.9 hPa West 15 km/h 15 km/h 27 % 0 mm
16:49 -9.8 °C -20 °C 34130.9 hPa WSW 12.7 km/h 12.7 km/h 28 % 0 mm
16:54 -9.8 °C -20.3 °C 34130.9 hPa WSW 20.9 km/h 20.9 km/h 27 % 0 mm
16:59 -10.2 °C -20.6 °C 34130.9 hPa WSW 6 km/h 6 km/h 27 % 0 mm
17:04 -10.3 °C -20.4 °C 34130.9 hPa SW 6 km/h 6 km/h 28 % 0 mm
17:09 -10.4 °C -20.5 °C 34130.9 hPa WSW 11.9 km/h 11.9 km/h 28 % 0 mm
17:14 -10.6 °C -20.7 °C 34130.9 hPa WSW 9 km/h 9 km/h 28 % 0 mm
17:19 -10.7 °C -20.7 °C 34130.9 hPa WSW 6.3 km/h 6.3 km/h 28 % 0 mm
17:24 -10.8 °C -20.6 °C 34130.9 hPa SW 6 km/h 6 km/h 29 % 0 mm
17:29 -10.8 °C -20.6 °C 34130.9 hPa West 6 km/h 6 km/h 29 % 0 mm
17:34 -10.9 °C -20.7 °C 34130.9 hPa WSW 15 km/h 15 km/h 29 % 0 mm
17:39 -11 °C -20.7 °C 34130.9 hPa WSW 11.9 km/h 11.9 km/h 29 % 0 mm
17:44 -11.1 °C -20.8 °C 34130.9 hPa SW 11.9 km/h 11.9 km/h 29 % 0 mm
17:49 -11.2 °C -20.9 °C 34130.9 hPa WNW 15 km/h 15 km/h 29 % 0 mm
17:54 -11.3 °C -20.7 °C 34130.9 hPa WSW 15 km/h 15 km/h 30 % 0 mm
17:59 -11.6 °C -20.6 °C 34198.6 hPa SSE 12.2 km/h 12.2 km/h 32 % 0 mm
18:04 -12.1 °C -20.3 °C 34198.6 hPa SSE 12.2 km/h 12.2 km/h 35 % 0 mm
18:09 -12.5 °C -19.2 °C 34198.6 hPa SW 9 km/h 10.3 km/h 43 % 0 mm
18:14 -12.4 °C -19.1 °C 34164.7 hPa SW 6 km/h 6 km/h 43 % 0 mm
18:19 -12.3 °C -18.8 °C 34164.7 hPa WSW 3.7 km/h   44 % 0 mm
18:24 -12.6 °C -18.7 °C 34164.7 hPa WSW 7.6 km/h 7.6 km/h 46 % 0 mm
18:29 -12.6 °C -18.7 °C 34164.7 hPa SW 7.6 km/h   46 % 0 mm
18:34 -12.7 °C -18.8 °C 34164.7 hPa WSW 6.8 km/h 6.8 km/h 46 % 0 mm
18:44 -12.8 °C -18.9 °C 34130.9 hPa WSW 6 km/h 6 km/h 46 % 0 mm
18:49 -12.8 °C -18.9 °C 34130.9 hPa WSW 6.8 km/h 6.8 km/h 46 % 0 mm
18:54 -12.7 °C -18.8 °C 34130.9 hPa WSW 6 km/h 6.3 km/h 46 % 0 mm
19:04 -12.5 °C -18.8 °C 34164.7 hPa WNW 9 km/h 9 km/h 45 % 0 mm
19:09 -12.3 °C -18.7 °C 34164.7 hPa West 15 km/h 15 km/h 45 % 0 mm
19:14 -12.3 °C -18.7 °C 34164.7 hPa WSW 15 km/h 15 km/h 45 % 0 mm
19:19 -12.3 °C -18.8 °C 34164.7 hPa WSW 11.9 km/h 11.9 km/h 44 % 0 mm
19:24 -12.2 °C -18.7 °C 34164.7 hPa WSW 10.3 km/h 10.3 km/h 44 % 0 mm
19:29 -12.2 °C -18.7 °C 34164.7 hPa WNW 15 km/h 15 km/h 44 % 0 mm
19:34 -12.2 °C -18.7 °C 34164.7 hPa WSW 9.3 km/h 9.3 km/h 44 % 0 mm
19:39 -12.3 °C -18.8 °C 34164.7 hPa ENE 9.8 km/h 9.8 km/h 44 % 0 mm
19:44 -12.3 °C -18.8 °C 34164.7 hPa NNE 9 km/h 9.8 km/h 44 % 0 mm
19:49 -12.4 °C -19.1 °C 34164.7 hPa NW 4.2 km/h 5.1 km/h 43 % 0 mm
19:54 -12.4 °C -19.1 °C 34164.7 hPa NNE 11.9 km/h 11.9 km/h 43 % 0 mm
19:59 -12.4 °C -19.1 °C 34198.6 hPa WSW 11.9 km/h 11.9 km/h 43 % 0 mm
20:04 -12.4 °C -19.1 °C 34198.6 hPa West 9 km/h 9 km/h 43 % 0 mm
20:09 -12.4 °C -19.1 °C 34198.6 hPa SSW 11.9 km/h 11.9 km/h 43 % 0 mm
20:14 -12.4 °C -19.1 °C 34164.7 hPa SE 15 km/h 15 km/h 43 % 0 mm
20:19 -12.4 °C -19.1 °C 34164.7 hPa WNW 11.9 km/h 11.9 km/h 43 % 0 mm
20:24 -12.5 °C -19.2 °C 34164.7 hPa WNW 5.1 km/h 5.1 km/h 43 % 0 mm
20:29 -12.6 °C -19.2 °C 34198.6 hPa NW 9.3 km/h 9.3 km/h 43 % 0 mm
20:34 -12.6 °C -19.2 °C 34198.6 hPa SW 12.2 km/h 12.2 km/h 43 % 0 mm
20:39 -12.6 °C -19.2 °C 34198.6 hPa WSW 11.9 km/h 11.9 km/h 43 % 0 mm
20:44 -12.6 °C -19.2 °C 34198.6 hPa WSW 11.9 km/h 11.9 km/h 43 % 0 mm
20:49 -12.7 °C -19.3 °C 34198.6 hPa WNW 6.3 km/h 6.3 km/h 43 % 0 mm
20:54 -12.8 °C -19.2 °C 34198.6 hPa ENE 6 km/h 6 km/h 44 % 0 mm
20:59 -12.8 °C -19.2 °C 34198.6 hPa WSW 9.3 km/h 9.3 km/h 44 % 0 mm
21:09 -12.9 °C -19.3 °C 34198.6 hPa ENE 15 km/h 15 km/h 44 % 0 mm
21:14 -12.9 °C -19.3 °C 34198.6 hPa ESE 6 km/h   44 % 0 mm
21:19 -12.9 °C -19.4 °C 34198.6 hPa WSW 9.3 km/h 9.3 km/h 44 % 0 mm
21:24 -12.9 °C -19.4 °C 34198.6 hPa NE 9 km/h 9 km/h 44 % 0 mm
21:29 -13 °C -19.4 °C 34198.6 hPa NE 6.8 km/h 6.8 km/h 44 % 0 mm
21:34 -13.1 °C -19.5 °C 34198.6 hPa NNE 11.9 km/h 11.9 km/h 44 % 0 mm
21:39 -13.1 °C -19.4 °C 34198.6 hPa NNW 11.9 km/h 11.9 km/h 45 % 0 mm
21:45 -13.2 °C -19.4 °C 34198.6 hPa NE 2.6 km/h 7.7 km/h 45 % 0 mm
21:50 -13.2 °C -19.6 °C 34198.6 hPa WNW 4.2 km/h   44 % 0 mm
21:55 -13.3 °C -19.5 °C 34198.6 hPa Calm     45 % 0 mm
22:00 -13.3 °C -19.6 °C 34198.6 hPa WSW 3.1 km/h   45 % 0 mm
22:05 -13.4 °C -19.6 °C 34198.6 hPa Calm     45 % 0 mm
22:10 -13.4 °C -19.6 °C 34198.6 hPa SW 8.5 km/h 8.5 km/h 45 % 0 mm
22:15 -13.4 °C -19.6 °C 34198.6 hPa WSW 2.6 km/h 7.7 km/h 45 % 0 mm
22:20 -13.4 °C -19.7 °C 34198.6 hPa WSW 9 km/h 9 km/h 45 % 0 mm
22:25 -13.5 °C -19.7 °C 34198.6 hPa WSW 6 km/h 6 km/h 45 % 0 mm
22:30 -13.6 °C -19.6 °C 34164.7 hPa NW 2.6 km/h 5.1 km/h 46 % 0 mm
22:35 -13.6 °C -19.7 °C 34164.7 hPa NNE 9 km/h 9 km/h 46 % 0 mm
22:40 -13.7 °C -19.7 °C 34164.7 hPa ENE 3.7 km/h 4.2 km/h 46 % 0 mm
22:45 -13.7 °C -19.7 °C 34164.7 hPa NNE 6.8 km/h 6.8 km/h 46 % 0 mm
22:50 -13.7 °C -19.7 °C 34164.7 hPa WSW 6.3 km/h 6.3 km/h 46 % 0 mm
22:55 -13.7 °C -19.7 °C 34164.7 hPa SW 8 km/h 8 km/h 46 % 0 mm
23:00 -13.7 °C -19.7 °C 34164.7 hPa West 7.6 km/h 7.6 km/h 46 % 0 mm
23:05 -13.7 °C -19.7 °C 34164.7 hPa NNE 6 km/h 6 km/h 46 % 0 mm
23:10 -13.7 °C -19.6 °C 34164.7 hPa NNW 9 km/h 9 km/h 47 % 0 mm
23:15 -13.7 °C -19.6 °C 34164.7 hPa SW 6.3 km/h 6.3 km/h 47 % 0 mm
23:20 -13.7 °C -19.6 °C 34164.7 hPa West 3.1 km/h   47 % 0 mm
23:25 -13.7 °C -19.6 °C 34164.7 hPa ENE 6.3 km/h 6.3 km/h 47 % 0 mm
Meteo Sesrovires
Elogis d' Weather Underground - 1.25 mb

Guio original per  Jim McMurry - jmcmurry@mwt.net Adaptat per a la plantilla per  Wim van der Kuil - Leuven-Template.eu

Trobareu la nostra informacio del temps tambe a:

Weather Underground

AWEKAS